Time;durP1;ratioP1;P1;durP2;ratioP2;P2;SDS_P1;SDS_P2;PMS_P1;PMS_P2;Temp;Humidity;BMP_temperature;BMP_pressure;BME280_temperature;BME280_humidity;BME280_pressure;Samples;Min_cycle;Max_cycle;Signal;HPM_P1;HPM_P2
2022/07/19 14:05:38;;;;;;;1.73;1.30;;;;;;;;;;5077437;27;21394;-89
2022/07/19 14:11:17;;;;;;;2.90;1.30;;;;;;;;;;5083539;27;20428;-89
2022/07/19 14:13:45;;;;;;;3.93;1.40;;;;;;;;;;5049776;28;20056;-89
2022/07/19 14:16:16;;;;;;;5.65;1.50;;;;;;;;;;5051837;28;20040;-88
2022/07/19 14:18:45;;;;;;;4.40;1.65;;;;;;;;;;5052123;28;20041;-89
2022/07/19 14:21:11;;;;;;;3.65;1.33;;;;;;;;;;5057525;28;20522;-88
2022/07/19 14:23:40;;;;;;;3.47;1.30;;;;;;;;;;5078879;28;20037;-88
2022/07/19 14:26:09;;;;;;;2.72;1.48;;;;;;;;;;5043154;28;20123;-88
2022/07/19 14:28:35;;;;;;;3.97;1.30;;;;;;;;;;5057922;28;20047;-88
2022/07/19 14:31:04;;;;;;;4.60;1.35;;;;;;;;;;5054772;28;20402;-88
2022/07/19 14:33:45;;;;;;;;;;;;;;;;;;;;;
2022/07/19 14:36:15;;;;;;;2.55;1.70;;;;;;;;;;5058226;28;20131;-89
2022/07/19 14:38:41;;;;;;;3.67;1.10;;;;;;;;;;5050007;28;20054;-88
2022/07/19 14:41:10;;;;;;;2.83;1.35;;;;;;;;;;5074027;28;20047;-89
2022/07/19 14:43:38;;;;;;;4.53;1.65;;;;;;;;;;5032350;28;20050;-88
2022/07/19 14:46:04;;;;;;;4.85;1.45;;;;;;;;;;5034968;28;20052;-88
2022/07/19 14:48:30;;;;;;;2.40;1.40;;;;;;;;;;5060077;28;20048;-88
2022/07/19 14:51:00;;;;;;;3.70;1.33;;;;;;;;;;5041519;28;20036;-88
2022/07/19 14:53:29;;;;;;;4.23;1.60;;;;;;;;;;5057502;28;20028;-87
2022/07/19 14:55:55;;;;;;;3.42;1.45;;;;;;;;;;5070328;28;20506;-89
2022/07/19 14:58:22;;;;;;;3.00;1.30;;;;;;;;;;5026008;28;20125;-87
2022/07/19 15:00:51;;;;;;;4.30;1.52;;;;;;;;;;5044273;28;20144;-87
2022/07/19 15:03:17;;;;;;;4.53;1.60;;;;;;;;;;5046350;28;20202;-87
2022/07/19 15:05:43;;;;;;;3.72;1.30;;;;;;;;;;5033195;28;20040;-89
2022/07/19 15:08:09;;;;;;;3.63;1.70;;;;;;;;;;5040992;28;20135;-88
2022/07/19 15:10:36;;;;;;;3.55;1.35;;;;;;;;;;5028098;28;20051;-88
2022/07/19 15:13:02;;;;;;;2.58;1.77;;;;;;;;;;5037227;28;20074;-88
2022/07/19 15:15:30;;;;;;;4.18;1.58;;;;;;;;;;5038594;28;20063;-89
2022/07/19 15:17:56;;;;;;;3.60;1.90;;;;;;;;;;5022758;28;20063;-88
2022/07/19 15:20:24;;;;;;;5.03;1.97;;;;;;;;;;5033876;28;20119;-88
2022/07/19 15:22:53;;;;;;;3.00;1.55;;;;;;;;;;5036526;28;20502;-88
2022/07/19 15:25:23;;;;;;;3.83;1.75;;;;;;;;;;5025652;28;20500;-88
2022/07/19 15:27:55;;;;;;;3.78;1.52;;;;;;;;;;5032552;28;20402;-89
2022/07/19 15:30:21;;;;;;;2.30;1.73;;;;;;;;;;5002874;28;20113;-89
2022/07/19 15:32:50;;;;;;;4.00;1.60;;;;;;;;;;5000330;28;20090;-89
2022/07/19 15:35:25;;;;;;;3.53;1.50;;;;;;;;;;5022434;28;20498;-88
2022/07/19 15:37:53;;;;;;;4.10;1.98;;;;;;;;;;4992894;28;20559;-88
2022/07/19 15:40:20;;;;;;;5.88;1.50;;;;;;;;;;4998975;28;20130;-89
2022/07/19 15:42:49;;;;;;;7.72;2.03;;;;;;;;;;5019609;28;20593;-89
2022/07/19 15:45:15;;;;;;;5.18;1.58;;;;;;;;;;5008991;28;20040;-88
2022/07/19 15:47:42;;;;;;;2.95;1.70;;;;;;;;;;5018527;28;20044;-89
2022/07/19 15:50:08;;;;;;;3.92;1.80;;;;;;;;;;5003538;28;20091;-88
2022/07/19 15:52:35;;;;;;;2.35;1.50;;;;;;;;;;5010316;28;20115;-89
2022/07/19 15:55:01;;;;;;;3.03;1.70;;;;;;;;;;5005932;28;20033;-88
2022/07/19 15:57:27;;;;;;;3.90;1.63;;;;;;;;;;5025663;28;20048;-89
2022/07/19 15:59:54;;;;;;;7.43;2.40;;;;;;;;;;4996640;28;20506;-89
2022/07/19 16:02:20;;;;;;;2.05;1.40;;;;;;;;;;5014462;28;20055;-89
2022/07/19 16:04:49;;;;;;;4.35;1.80;;;;;;;;;;5019025;28;20101;-89
2022/07/19 16:07:17;;;;;;;2.97;1.67;;;;;;;;;;5003280;28;20593;-90
2022/07/19 16:09:45;;;;;;;3.53;1.60;;;;;;;;;;5003060;28;20954;-89
2022/07/19 16:12:17;;;;;;;2.85;1.65;;;;;;;;;;5008237;28;20052;-88
2022/07/19 16:14:43;;;;;;;4.07;1.60;;;;;;;;;;5001159;28;20040;-89
2022/07/19 16:17:10;;;;;;;3.75;1.48;;;;;;;;;;4991831;28;20127;-89
2022/07/19 16:19:36;;;;;;;4.10;1.70;;;;;;;;;;4999335;28;20040;-89
2022/07/19 16:22:02;;;;;;;4.13;1.67;;;;;;;;;;5015442;28;20043;-88
2022/07/19 16:24:28;;;;;;;2.65;1.63;;;;;;;;;;5003036;28;20051;-90
2022/07/19 16:26:54;;;;;;;4.63;1.97;;;;;;;;;;4993834;28;20131;-89
2022/07/19 16:29:21;;;;;;;4.60;2.10;;;;;;;;;;5012428;28;20183;-89
2022/07/19 16:31:47;;;;;;;2.33;1.70;;;;;;;;;;5029399;28;20174;-88
2022/07/19 16:34:14;;;;;;;3.47;1.52;;;;;;;;;;5015032;28;20040;-89
2022/07/19 16:36:44;;;;;;;4.63;1.95;;;;;;;;;;5033641;28;20040;-89
2022/07/19 16:39:12;;;;;;;3.03;1.75;;;;;;;;;;5025263;28;22635;-88
2022/07/19 16:41:39;;;;;;;5.13;1.60;;;;;;;;;;5018606;28;20048;-89
2022/07/19 16:44:05;;;;;;;3.65;1.77;;;;;;;;;;5002446;28;20308;-90
2022/07/19 16:46:32;;;;;;;6.55;2.10;;;;;;;;;;5043082;28;20040;-89
2022/07/19 16:49:00;;;;;;;3.75;1.70;;;;;;;;;;5028644;28;20040;-89
2022/07/19 16:51:27;;;;;;;6.47;2.05;;;;;;;;;;5020304;28;20039;-89
2022/07/19 16:53:53;;;;;;;5.47;2.03;;;;;;;;;;5034330;28;20467;-90
2022/07/19 16:56:19;;;;;;;3.30;1.83;;;;;;;;;;5031846;28;20043;-89
2022/07/19 16:58:45;;;;;;;5.80;1.70;;;;;;;;;;5028409;28;20166;-90
2022/07/19 17:01:11;;;;;;;6.80;1.88;;;;;;;;;;4995337;28;20052;-89
2022/07/19 17:03:37;;;;;;;7.82;2.33;;;;;;;;;;5019444;28;20498;-89
2022/07/19 17:06:03;;;;;;;3.45;1.80;;;;;;;;;;5014549;28;20052;-88
2022/07/19 17:08:29;;;;;;;4.07;1.63;;;;;;;;;;5016612;28;21423;-89
2022/07/19 17:10:55;;;;;;;4.32;1.58;;;;;;;;;;5014888;28;20056;-88
2022/07/19 17:13:21;;;;;;;4.38;1.85;;;;;;;;;;5016499;28;20047;-88
2022/07/19 17:15:50;;;;;;;4.22;2.03;;;;;;;;;;5017125;28;20048;-88
2022/07/19 17:18:17;;;;;;;3.58;1.70;;;;;;;;;;4999290;28;20048;-89
2022/07/19 17:20:43;;;;;;;4.15;1.67;;;;;;;;;;5017959;28;20144;-89
2022/07/19 17:23:09;;;;;;;4.00;2.38;;;;;;;;;;5018342;28;20149;-89
2022/07/19 17:25:35;;;;;;;6.15;2.00;;;;;;;;;;5016330;28;20047;-89
2022/07/19 17:28:01;;;;;;;3.58;1.90;;;;;;;;;;5030516;28;20119;-88
2022/07/19 17:30:27;;;;;;;4.85;1.80;;;;;;;;;;5006568;28;20040;-88
2022/07/19 17:32:53;;;;;;;5.05;1.80;;;;;;;;;;5001069;28;20094;-89
2022/07/19 17:35:19;;;;;;;6.80;1.85;;;;;;;;;;5021327;28;20037;-88
2022/07/19 17:37:45;;;;;;;2.45;1.58;;;;;;;;;;5033173;28;20041;-88
2022/07/19 17:40:12;;;;;;;3.38;1.88;;;;;;;;;;5038227;28;20032;-89
2022/07/19 17:42:38;;;;;;;4.23;2.13;;;;;;;;;;5008253;28;20044;-88
2022/07/19 17:45:05;;;;;;;3.08;1.98;;;;;;;;;;5003426;28;20432;-89
2022/07/19 17:47:31;;;;;;;3.60;1.70;;;;;;;;;;5026713;28;20040;-88
2022/07/19 17:49:57;;;;;;;5.75;2.05;;;;;;;;;;5019915;28;20047;-88
2022/07/19 17:52:23;;;;;;;4.45;1.70;;;;;;;;;;5023878;28;20079;-88
2022/07/19 17:54:49;;;;;;;5.53;2.10;;;;;;;;;;5019511;28;21344;-88
2022/07/19 17:57:15;;;;;;;3.78;1.88;;;;;;;;;;5018217;28;20072;-88
2022/07/19 17:59:41;;;;;;;3.13;1.80;;;;;;;;;;5023478;28;20056;-87
2022/07/19 18:02:07;;;;;;;6.90;2.10;;;;;;;;;;5000176;28;21716;-88
2022/07/19 18:04:33;;;;;;;3.65;1.75;;;;;;;;;;5001085;28;20045;-87
2022/07/19 18:07:00;;;;;;;4.47;1.98;;;;;;;;;;5031499;28;21631;-88
2022/07/19 18:09:26;;;;;;;6.20;2.00;;;;;;;;;;5038281;28;20514;-88
2022/07/19 18:11:52;;;;;;;9.18;1.85;;;;;;;;;;5034949;28;20052;-88
2022/07/19 18:14:18;;;;;;;2.17;1.90;;;;;;;;;;5036629;28;20044;-89
2022/07/19 18:16:44;;;;;;;4.30;1.90;;;;;;;;;;5007429;28;20107;-88
2022/07/19 18:19:10;;;;;;;3.75;2.03;;;;;;;;;;5020337;28;20048;-89
2022/07/19 18:21:36;;;;;;;1.98;1.80;;;;;;;;;;5044624;28;20113;-88
2022/07/19 18:24:03;;;;;;;5.50;1.83;;;;;;;;;;5032809;28;20471;-88
2022/07/19 18:26:29;;;;;;;3.40;1.85;;;;;;;;;;5024150;28;20037;-88
2022/07/19 18:28:55;;;;;;;3.55;2.20;;;;;;;;;;5018799;28;22329;-88
2022/07/19 18:31:21;;;;;;;3.83;2.13;;;;;;;;;;5028194;28;20048;-87
2022/07/19 18:33:47;;;;;;;5.22;2.22;;;;;;;;;;5038045;28;20447;-88
2022/07/19 18:36:13;;;;;;;5.30;2.28;;;;;;;;;;5039795;28;20160;-87
2022/07/19 18:38:39;;;;;;;3.05;2.03;;;;;;;;;;5043819;28;20040;-87
2022/07/19 18:41:05;;;;;;;4.25;1.80;;;;;;;;;;5020365;28;20444;-88
2022/07/19 18:43:32;;;;;;;4.88;2.35;;;;;;;;;;5039133;28;20048;-88
2022/07/19 18:45:59;;;;;;;7.37;2.13;;;;;;;;;;5020924;28;20134;-88
2022/07/19 18:48:28;;;;;;;3.92;2.20;;;;;;;;;;5024526;28;20638;-89
2022/07/19 18:51:03;;;;;;;3.78;2.20;;;;;;;;;;5018572;28;20044;-88
2022/07/19 18:53:30;;;;;;;5.85;2.17;;;;;;;;;;5026327;28;20048;-88
2022/07/19 18:55:56;;;;;;;4.50;2.10;;;;;;;;;;5021212;28;20511;-88
2022/07/19 18:58:22;;;;;;;3.95;2.60;;;;;;;;;;5043162;28;20859;-88
2022/07/19 19:00:48;;;;;;;5.97;2.22;;;;;;;;;;5026706;28;20036;-88
2022/07/19 19:03:14;;;;;;;8.05;2.20;;;;;;;;;;5033279;28;20040;-87
2022/07/19 19:05:41;;;;;;;4.90;2.42;;;;;;;;;;5045939;28;20127;-87
2022/07/19 19:08:08;;;;;;;3.97;2.20;;;;;;;;;;5025950;28;20045;-87
2022/07/19 19:10:34;;;;;;;;;;;;;;;;;;5014186;28;20052;-88
2022/07/19 19:13:00;;;;;;;7.70;2.65;;;;;;;;;;5038853;28;20396;-88
2022/07/19 19:15:27;;;;;;;8.40;2.92;;;;;;;;;;5013944;28;20403;-88
2022/07/19 19:17:53;;;;;;;6.20;2.58;;;;;;;;;;5032779;28;20051;-82
2022/07/19 19:20:19;;;;;;;5.75;2.55;;;;;;;;;;5043024;28;20090;-84
2022/07/19 19:22:45;;;;;;;10.88;2.17;;;;;;;;;;5024083;28;20044;-84
2022/07/19 19:25:12;;;;;;;7.10;2.35;;;;;;;;;;5036255;28;20044;-84
2022/07/19 19:27:38;;;;;;;7.53;2.83;;;;;;;;;;5032936;28;20101;-84
2022/07/19 19:30:05;;;;;;;5.80;2.88;;;;;;;;;;5035144;28;20048;-83
2022/07/19 19:32:31;;;;;;;4.50;2.85;;;;;;;;;;5040622;28;20037;-83
2022/07/19 19:34:58;;;;;;;5.53;2.47;;;;;;;;;;5041343;28;20037;-83
2022/07/19 19:37:24;;;;;;;5.20;2.38;;;;;;;;;;5037456;28;20499;-84
2022/07/19 19:39:50;;;;;;;3.25;2.42;;;;;;;;;;5034554;28;20047;-84
2022/07/19 19:42:16;;;;;;;4.75;2.60;;;;;;;;;;5035856;28;20064;-84
2022/07/19 19:44:43;;;;;;;2.95;2.40;;;;;;;;;;5040348;28;20056;-83
2022/07/19 19:47:09;;;;;;;3.72;2.70;;;;;;;;;;5032063;28;20044;-82
2022/07/19 19:49:35;;;;;;;4.70;2.60;;;;;;;;;;5038093;28;20075;-83
2022/07/19 19:52:01;;;;;;;5.72;2.65;;;;;;;;;;5033089;28;20494;-83
2022/07/19 19:54:28;;;;;;;5.30;2.58;;;;;;;;;;5039214;28;20040;-83
2022/07/19 19:56:54;;;;;;;3.50;2.40;;;;;;;;;;5034419;28;20043;-83
2022/07/19 19:59:20;;;;;;;3.88;2.45;;;;;;;;;;5039218;28;20040;-83
2022/07/19 20:01:46;;;;;;;3.70;2.28;;;;;;;;;;5038416;28;20040;-84
2022/07/19 20:04:12;;;;;;;3.05;2.50;;;;;;;;;;5032795;28;20556;-83
2022/07/19 20:06:38;;;;;;;3.10;2.55;;;;;;;;;;5041667;28;20036;-83
2022/07/19 20:09:04;;;;;;;4.82;2.47;;;;;;;;;;5035194;28;20101;-83
2022/07/19 20:11:31;;;;;;;4.22;2.40;;;;;;;;;;5035856;28;20046;-83
2022/07/19 20:13:57;;;;;;;5.78;2.50;;;;;;;;;;5036232;28;20067;-84
2022/07/19 20:16:23;;;;;;;3.38;2.55;;;;;;;;;;5040339;28;20131;-83
2022/07/19 20:18:49;;;;;;;2.92;2.65;;;;;;;;;;5038144;28;20115;-79
2022/07/19 20:21:15;;;;;;;4.20;2.80;;;;;;;;;;5045317;28;20044;-79
2022/07/19 20:23:41;;;;;;;3.63;2.60;;;;;;;;;;5037284;28;20051;-79
2022/07/19 20:26:07;;;;;;;3.55;2.50;;;;;;;;;;5038469;28;20051;-79
2022/07/19 20:28:34;;;;;;;3.70;2.80;;;;;;;;;;5028044;28;20128;-79
2022/07/19 20:31:00;;;;;;;5.05;2.80;;;;;;;;;;5039256;28;20071;-79
2022/07/19 20:33:26;;;;;;;2.85;2.60;;;;;;;;;;5028253;28;20041;-79
2022/07/19 20:35:53;;;;;;;5.15;2.65;;;;;;;;;;5034732;28;20040;-79
2022/07/19 20:38:21;;;;;;;7.88;3.20;;;;;;;;;;5023013;28;20036;-79
2022/07/19 20:40:48;;;;;;;7.70;3.03;;;;;;;;;;5021639;28;20137;-79
2022/07/19 20:43:14;;;;;;;;;;;;;;;;;;5006001;28;20100;-79
2022/07/19 20:45:40;;;;;;;6.07;2.85;;;;;;;;;;5035214;28;20240;-79
2022/07/19 20:48:06;;;;;;;3.20;2.90;;;;;;;;;;5008040;28;20041;-79
2022/07/19 20:50:32;;;;;;;4.13;3.00;;;;;;;;;;5020214;28;20055;-78
2022/07/19 20:52:58;;;;;;;4.13;3.00;;;;;;;;;;4999543;28;20097;-79
2022/07/19 20:55:27;;;;;;;4.18;3.15;;;;;;;;;;5037318;28;20045;-79
2022/07/19 20:57:53;;;;;;;3.83;2.70;;;;;;;;;;5018711;28;20549;-79
2022/07/19 21:00:19;;;;;;;4.55;2.90;;;;;;;;;;5022984;28;20063;-79
2022/07/19 21:02:45;;;;;;;4.63;2.97;;;;;;;;;;5021838;28;20178;-79
2022/07/19 21:05:11;;;;;;;6.47;2.92;;;;;;;;;;5039171;28;20140;-79
2022/07/19 21:07:38;;;;;;;5.30;3.03;;;;;;;;;;5044864;28;20126;-79
2022/07/19 21:10:04;;;;;;;6.35;2.80;;;;;;;;;;5024924;28;20063;-79
2022/07/19 21:12:31;;;;;;;4.63;3.15;;;;;;;;;;5025424;28;20036;-80
2022/07/19 21:14:57;;;;;;;4.50;3.03;;;;;;;;;;5019301;28;20128;-79
2022/07/19 21:17:26;;;;;;;3.10;2.80;;;;;;;;;;5007877;28;20337;-78
2022/07/19 21:19:52;;;;;;;3.55;3.00;;;;;;;;;;5012380;28;21046;-79
2022/07/19 21:22:18;;;;;;;4.85;2.90;;;;;;;;;;5016174;28;21493;-87
2022/07/19 21:24:44;;;;;;;3.17;2.88;;;;;;;;;;5019736;28;20051;-87
2022/07/19 21:27:18;;;;;;;5.43;2.92;;;;;;;;;;5010639;28;20149;-87
2022/07/19 21:29:44;;;;;;;4.90;2.85;;;;;;;;;;5006725;28;20090;-87
2022/07/19 21:32:18;;;;;;;3.47;2.88;;;;;;;;;;5012877;28;20041;-87
2022/07/19 21:34:45;;;;;;;7.90;3.17;;;;;;;;;;5027226;28;20036;-88
2022/07/19 21:37:14;;;;;;;4.93;3.13;;;;;;;;;;5013929;28;20127;-87
2022/07/19 21:39:58;;;;;;;3.45;2.80;;;;;;;;;;5021623;28;20139;-87
2022/07/19 21:42:32;;;;;;;3.90;2.65;;;;;;;;;;5019766;28;20044;-88
2022/07/19 21:45:00;;;;;;;4.68;2.65;;;;;;;;;;5011551;28;20090;-87
2022/07/19 21:47:27;;;;;;;4.70;3.10;;;;;;;;;;5038062;28;20071;-87
2022/07/19 21:49:55;;;;;;;3.45;2.80;;;;;;;;;;4997920;28;20131;-87
2022/07/19 21:52:25;;;;;;;4.07;2.67;;;;;;;;;;5021862;28;20137;-87
2022/07/19 21:54:52;;;;;;;3.05;2.72;;;;;;;;;;5032174;28;20036;-87
2022/07/19 21:57:19;;;;;;;3.33;2.58;;;;;;;;;;5001175;28;20051;-87
2022/07/19 21:59:49;;;;;;;3.38;2.50;;;;;;;;;;5002356;28;20071;-87
2022/07/19 22:02:17;;;;;;;5.28;2.78;;;;;;;;;;5033986;28;20048;-87
2022/07/19 22:04:47;;;;;;;3.97;2.50;;;;;;;;;;5034822;28;20049;-87
2022/07/19 22:07:18;;;;;;;5.20;2.90;;;;;;;;;;5039596;28;20040;-87
2022/07/19 22:09:44;;;;;;;4.25;3.15;;;;;;;;;;5014733;28;20048;-87
2022/07/19 22:12:14;;;;;;;4.25;2.63;;;;;;;;;;5005911;28;20045;-87
2022/07/19 22:14:45;;;;;;;3.28;2.60;;;;;;;;;;5009264;28;20047;-87
2022/07/19 22:17:12;;;;;;;5.53;2.88;;;;;;;;;;5007403;28;20055;-87
2022/07/19 22:19:45;;;;;;;2.95;2.65;;;;;;;;;;5022529;28;20056;-87
2022/07/19 22:22:21;;;;;;;7.28;2.85;;;;;;;;;;5000992;28;20037;-87
2022/07/19 22:24:49;;;;;;;4.07;2.90;;;;;;;;;;5031543;28;20052;-87
2022/07/19 22:27:21;;;;;;;4.45;2.95;;;;;;;;;;5019169;28;20137;-87
2022/07/19 22:29:49;;;;;;;5.40;3.10;;;;;;;;;;5014403;28;20041;-86
2022/07/19 22:32:19;;;;;;;5.10;2.70;;;;;;;;;;5026429;28;20120;-87
2022/07/19 22:35:01;;;;;;;4.20;2.70;;;;;;;;;;5018553;28;20372;-87
2022/07/19 22:37:35;;;;;;;6.03;3.00;;;;;;;;;;5031251;28;20074;-87
2022/07/19 22:40:01;;;;;;;3.45;2.92;;;;;;;;;;4999076;28;21717;-86
2022/07/19 22:42:28;;;;;;;4.75;2.78;;;;;;;;;;5035909;28;20048;-87
2022/07/19 22:44:57;;;;;;;4.07;3.17;;;;;;;;;;5017138;28;20051;-87
2022/07/19 22:47:24;;;;;;;3.45;2.55;;;;;;;;;;5025219;28;20044;-87
2022/07/19 22:49:54;;;;;;;4.32;3.20;;;;;;;;;;4997875;28;20196;-87
2022/07/19 22:52:30;;;;;;;5.28;2.75;;;;;;;;;;5035342;28;20080;-87
2022/07/19 22:54:57;;;;;;;5.03;2.75;;;;;;;;;;5032201;28;20492;-87
2022/07/19 22:57:25;;;;;;;5.60;3.00;;;;;;;;;;5007508;28;20040;-87
2022/07/19 22:59:52;;;;;;;4.30;2.75;;;;;;;;;;5004460;28;20044;-87
2022/07/19 23:02:20;;;;;;;3.80;3.08;;;;;;;;;;5020522;28;20372;-88
2022/07/19 23:04:47;;;;;;;5.32;3.17;;;;;;;;;;5022967;28;20803;-87
2022/07/19 23:07:15;;;;;;;7.60;3.00;;;;;;;;;;5004436;28;20109;-87
2022/07/19 23:09:41;;;;;;;4.30;2.95;;;;;;;;;;5022416;28;20123;-87
2022/07/19 23:12:08;;;;;;;4.90;2.70;;;;;;;;;;5024211;28;20062;-87
2022/07/19 23:14:36;;;;;;;6.20;3.03;;;;;;;;;;5011555;28;20128;-87
2022/07/19 23:17:02;;;;;;;;;;;;;;;;;;5009280;28;20286;-87
2022/07/19 23:19:29;;;;;;;3.83;2.60;;;;;;;;;;5035791;28;19920;-87
2022/07/19 23:21:56;;;;;;;5.50;3.00;;;;;;;;;;5045264;28;20483;-87
2022/07/19 23:24:24;;;;;;;5.95;2.90;;;;;;;;;;5040713;28;20111;-87
2022/07/19 23:27:05;;;;;;;5.55;3.15;;;;;;;;;;5053116;28;20059;-86
2022/07/19 23:29:33;;;;;;;6.18;2.80;;;;;;;;;;5033272;28;20131;-87
2022/07/19 23:32:00;;;;;;;4.45;3.03;;;;;;;;;;5048239;28;20032;-87
2022/07/19 23:34:28;;;;;;;6.32;2.90;;;;;;;;;;5042665;28;20419;-87
2022/07/19 23:36:55;;;;;;;5.10;3.10;;;;;;;;;;5020658;28;20641;-88
2022/07/19 23:39:23;;;;;;;7.53;3.00;;;;;;;;;;5027261;28;20041;-87
2022/07/19 23:41:54;;;;;;;4.28;3.00;;;;;;;;;;5020018;28;20049;-87
2022/07/19 23:44:23;;;;;;;5.57;2.70;;;;;;;;;;5025926;28;20129;-87
2022/07/19 23:46:50;;;;;;;6.60;3.03;;;;;;;;;;5026019;28;20040;-87
2022/07/19 23:49:18;;;;;;;5.22;2.85;;;;;;;;;;5027111;28;21790;-87
2022/07/19 23:51:46;;;;;;;4.00;3.13;;;;;;;;;;4992836;28;20028;-87
2022/07/19 23:54:13;;;;;;;4.60;3.22;;;;;;;;;;5026797;28;20040;-87
2022/07/19 23:56:41;;;;;;;5.03;3.17;;;;;;;;;;5037583;28;20029;-87
2022/07/19 23:59:09;;;;;;;5.15;2.90;;;;;;;;;;5015488;28;20310;-87
